Time;durP1;ratioP1;P1;durP2;ratioP2;P2;SDS_P1;SDS_P2;PMS_P1;PMS_P2;Temp;Humidity;BMP_temperature;BMP_pressure;BME280_temperature;BME280_humidity;BME280_pressure;Samples;Min_cycle;Max_cycle;Signal;HPM_P1;HPM_P2
2021/08/08 00:01:00;;;;;;;8.38;3.08;;;;;;;;;;4996833;28;20026;-68
2021/08/08 00:03:27;;;;;;;9.27;3.17;;;;;;;;;;4998753;28;20099;-68
2021/08/08 00:05:55;;;;;;;10.02;2.55;;;;;;;;;;4997559;28;20031;-69
2021/08/08 00:08:23;;;;;;;10.40;2.20;;;;;;;;;;5008140;28;20022;-68
2021/08/08 00:10:50;;;;;;;17.00;2.10;;;;;;;;;;4999859;28;20057;-67
2021/08/08 00:13:17;;;;;;;14.68;2.80;;;;;;;;;;5000219;28;20088;-68
2021/08/08 00:15:44;;;;;;;8.77;1.27;;;;;;;;;;5011317;28;20498;-68
2021/08/08 00:18:11;;;;;;;6.43;1.80;;;;;;;;;;5000621;28;20479;-69
2021/08/08 00:20:38;;;;;;;9.90;2.58;;;;;;;;;;5002274;28;20031;-68
2021/08/08 00:23:06;;;;;;;9.80;1.88;;;;;;;;;;5001638;28;20025;-69
2021/08/08 00:25:33;;;;;;;9.95;1.80;;;;;;;;;;5005664;28;20510;-69
2021/08/08 00:28:00;;;;;;;9.02;1.60;;;;;;;;;;4990808;28;20030;-69
2021/08/08 00:30:27;;;;;;;9.38;1.77;;;;;;;;;;5009953;28;20487;-69
2021/08/08 00:32:55;;;;;;;14.23;2.22;;;;;;;;;;4998239;28;20037;-70
2021/08/08 00:35:22;;;;;;;10.48;1.20;;;;;;;;;;4993676;28;20022;-70
2021/08/08 00:37:50;;;;;;;8.75;1.40;;;;;;;;;;4998368;28;20049;-69
2021/08/08 00:40:19;;;;;;;10.30;1.95;;;;;;;;;;5002021;28;20055;-70
2021/08/08 00:42:46;;;;;;;7.20;1.45;;;;;;;;;;4987411;28;20482;-70
2021/08/08 00:45:18;;;;;;;13.30;2.40;;;;;;;;;;4985312;28;20031;-69
2021/08/08 00:47:46;;;;;;;13.88;1.42;;;;;;;;;;4987358;28;20034;-69
2021/08/08 00:50:13;;;;;;;18.98;2.22;;;;;;;;;;4982072;28;20022;-69
2021/08/08 00:52:41;;;;;;;16.88;2.80;;;;;;;;;;4979779;28;20605;-69
2021/08/08 00:55:09;;;;;;;13.85;2.20;;;;;;;;;;4986792;28;20053;-70
2021/08/08 00:57:36;;;;;;;13.35;1.77;;;;;;;;;;5007915;28;20049;-69
2021/08/08 01:00:07;;;;;;;13.07;2.00;;;;;;;;;;4985992;28;20103;-69
2021/08/08 01:02:36;;;;;;;16.65;3.03;;;;;;;;;;4973260;28;20420;-69
2021/08/08 01:05:07;;;;;;;9.45;2.10;;;;;;;;;;4990833;28;20038;-67
2021/08/08 01:07:39;;;;;;;9.10;2.38;;;;;;;;;;4991101;28;20085;-68
2021/08/08 01:10:07;;;;;;;14.10;2.47;;;;;;;;;;4991882;28;20030;-69
2021/08/08 01:12:35;;;;;;;17.70;3.90;;;;;;;;;;4989272;28;20033;-69
2021/08/08 01:15:02;;;;;;;13.70;2.90;;;;;;;;;;4990524;28;20026;-68
2021/08/08 01:17:29;;;;;;;15.63;2.40;;;;;;;;;;4994325;28;20487;-69
2021/08/08 01:19:59;;;;;;;15.52;2.55;;;;;;;;;;4979287;28;20042;-69
2021/08/08 01:22:30;;;;;;;19.27;2.63;;;;;;;;;;4986027;28;20030;-69
2021/08/08 01:24:59;;;;;;;12.30;2.60;;;;;;;;;;5007196;28;20049;-69
2021/08/08 01:27:29;;;;;;;18.17;2.83;;;;;;;;;;4996594;28;20096;-69
2021/08/08 01:29:57;;;;;;;17.95;2.90;;;;;;;;;;5002419;28;20022;-69
2021/08/08 01:32:24;;;;;;;17.35;3.63;;;;;;;;;;4996236;28;20010;-68
2021/08/08 01:34:52;;;;;;;17.92;3.38;;;;;;;;;;4983226;28;20042;-69
2021/08/08 01:37:21;;;;;;;18.17;1.90;;;;;;;;;;4978297;28;20034;-69
2021/08/08 01:39:53;;;;;;;19.75;1.88;;;;;;;;;;4991579;28;20033;-69
2021/08/08 01:42:21;;;;;;;17.55;2.80;;;;;;;;;;5000897;28;20093;-70
2021/08/08 01:44:50;;;;;;;17.50;2.53;;;;;;;;;;5013792;28;20022;-70
2021/08/08 01:47:19;;;;;;;20.55;3.33;;;;;;;;;;4992036;28;20510;-70
2021/08/08 01:49:49;;;;;;;16.92;2.70;;;;;;;;;;4992008;28;20022;-70
2021/08/08 01:52:16;;;;;;;18.23;2.25;;;;;;;;;;4976800;28;20031;-69
2021/08/08 01:54:43;;;;;;;14.82;3.25;;;;;;;;;;5002971;28;20096;-69
2021/08/08 01:57:12;;;;;;;14.50;2.75;;;;;;;;;;4985309;28;20037;-69
2021/08/08 01:59:39;;;;;;;21.33;4.75;;;;;;;;;;4986891;28;20037;-69
2021/08/08 02:02:13;;;;;;;18.55;2.50;;;;;;;;;;4992365;28;20022;-69
2021/08/08 02:04:40;;;;;;;;;;;;;;;;;;4992875;28;20033;-70
2021/08/08 02:07:11;;;;;;;16.20;3.03;;;;;;;;;;4982059;28;19961;-69
2021/08/08 02:09:38;;;;;;;14.75;2.47;;;;;;;;;;4992113;28;20027;-68
2021/08/08 02:12:06;;;;;;;20.38;3.70;;;;;;;;;;4983519;28;20077;-69
2021/08/08 02:14:33;;;;;;;19.15;2.85;;;;;;;;;;4978035;28;20035;-70
2021/08/08 02:17:00;;;;;;;12.88;1.90;;;;;;;;;;4980686;28;20035;-70
2021/08/08 02:19:29;;;;;;;14.15;2.70;;;;;;;;;;4977361;28;20037;-70
2021/08/08 02:21:56;;;;;;;13.95;2.90;;;;;;;;;;4997999;28;20084;-70
2021/08/08 02:24:23;;;;;;;13.77;2.55;;;;;;;;;;5002270;28;20475;-71
2021/08/08 02:26:51;;;;;;;16.20;2.13;;;;;;;;;;4999755;28;20499;-70
2021/08/08 02:29:18;;;;;;;21.67;2.97;;;;;;;;;;4991728;28;20037;-70
2021/08/08 02:31:46;;;;;;;18.33;2.53;;;;;;;;;;4999302;28;20037;-69
2021/08/08 02:34:15;;;;;;;15.32;2.45;;;;;;;;;;4999846;28;20024;-69
2021/08/08 02:36:43;;;;;;;14.07;2.10;;;;;;;;;;5002208;28;20038;-69
2021/08/08 02:39:10;;;;;;;12.73;2.47;;;;;;;;;;4990577;28;20547;-70
2021/08/08 02:41:37;;;;;;;12.05;1.45;;;;;;;;;;4995537;28;20037;-69
2021/08/08 02:44:05;;;;;;;18.75;2.63;;;;;;;;;;4991516;28;20076;-70
2021/08/08 02:46:32;;;;;;;12.20;1.88;;;;;;;;;;4987811;28;20125;-70
2021/08/08 02:48:59;;;;;;;15.00;1.90;;;;;;;;;;5011500;28;20029;-69
2021/08/08 02:51:26;;;;;;;19.23;1.95;;;;;;;;;;5011854;28;20057;-70
2021/08/08 02:53:53;;;;;;;10.63;1.73;;;;;;;;;;5011701;28;20042;-71
2021/08/08 02:56:21;;;;;;;17.05;2.45;;;;;;;;;;5006959;28;20034;-71
2021/08/08 02:58:48;;;;;;;13.73;2.30;;;;;;;;;;4993306;28;20023;-70
2021/08/08 03:01:15;;;;;;;8.55;2.33;;;;;;;;;;4999874;28;20160;-70
2021/08/08 03:03:42;;;;;;;21.60;2.08;;;;;;;;;;5004686;28;20479;-71
2021/08/08 03:06:13;;;;;;;9.02;1.33;;;;;;;;;;4994453;28;20037;-69
2021/08/08 03:08:42;;;;;;;10.45;1.90;;;;;;;;;;4999689;28;20022;-70
2021/08/08 03:11:10;;;;;;;15.15;1.95;;;;;;;;;;5010027;28;20018;-69
2021/08/08 03:13:37;;;;;;;11.85;1.75;;;;;;;;;;5008495;28;20395;-70
2021/08/08 03:16:04;;;;;;;16.05;2.05;;;;;;;;;;5000549;28;20037;-70
2021/08/08 03:18:32;;;;;;;11.27;2.17;;;;;;;;;;4999430;28;20038;-70
2021/08/08 03:20:59;;;;;;;16.98;2.50;;;;;;;;;;5000079;28;20926;-70
2021/08/08 03:23:26;;;;;;;15.00;2.30;;;;;;;;;;4993602;28;20026;-70
2021/08/08 03:25:54;;;;;;;19.65;2.67;;;;;;;;;;5005067;28;20021;-70
2021/08/08 03:28:21;;;;;;;17.67;2.08;;;;;;;;;;5002758;28;20022;-71
2021/08/08 03:30:48;;;;;;;19.63;2.20;;;;;;;;;;5000644;28;20058;-69
2021/08/08 03:33:15;;;;;;;12.95;2.08;;;;;;;;;;5001307;28;20033;-70
2021/08/08 03:35:42;;;;;;;13.80;3.08;;;;;;;;;;5003076;28;20050;-70
2021/08/08 03:38:10;;;;;;;14.10;2.80;;;;;;;;;;5001567;28;20513;-70
2021/08/08 03:40:37;;;;;;;16.80;1.88;;;;;;;;;;4999044;28;20034;-69
2021/08/08 03:43:04;;;;;;;10.32;1.98;;;;;;;;;;5005436;28;20026;-72
2021/08/08 03:45:32;;;;;;;11.68;2.45;;;;;;;;;;4996917;28;20053;-70
2021/08/08 03:47:59;;;;;;;11.65;2.20;;;;;;;;;;4994370;28;20019;-70
2021/08/08 03:50:26;;;;;;;18.23;2.80;;;;;;;;;;4994858;28;20109;-69
2021/08/08 03:52:53;;;;;;;13.75;2.05;;;;;;;;;;4994834;28;20031;-68
2021/08/08 03:55:20;;;;;;;15.13;2.28;;;;;;;;;;4993533;28;20483;-69
2021/08/08 03:57:47;;;;;;;16.15;3.58;;;;;;;;;;4993568;28;20034;-69
2021/08/08 04:00:14;;;;;;;14.60;2.83;;;;;;;;;;4994259;28;20503;-69
2021/08/08 04:02:42;;;;;;;13.73;2.88;;;;;;;;;;4993452;28;20027;-68
2021/08/08 04:05:09;;;;;;;14.32;1.70;;;;;;;;;;4992713;28;20029;-70
2021/08/08 04:07:36;;;;;;;18.40;2.45;;;;;;;;;;5007808;28;20643;-69
2021/08/08 04:10:03;;;;;;;10.60;2.65;;;;;;;;;;4993563;28;20026;-67
2021/08/08 04:12:31;;;;;;;12.65;2.08;;;;;;;;;;4992446;28;20019;-70
2021/08/08 04:14:58;;;;;;;12.75;2.03;;;;;;;;;;4996083;28;23658;-69
2021/08/08 04:17:25;;;;;;;16.23;2.17;;;;;;;;;;5001774;28;20057;-69
2021/08/08 04:19:52;;;;;;;19.58;2.53;;;;;;;;;;4994644;28;20037;-70
2021/08/08 04:22:19;;;;;;;13.80;2.65;;;;;;;;;;4990399;28;20511;-70
2021/08/08 04:24:46;;;;;;;14.98;2.67;;;;;;;;;;4990016;28;20484;-70
2021/08/08 04:27:14;;;;;;;15.98;3.35;;;;;;;;;;4988467;28;20030;-69
2021/08/08 04:29:42;;;;;;;17.95;2.00;;;;;;;;;;4983656;28;20038;-71
2021/08/08 04:32:09;;;;;;;14.50;3.13;;;;;;;;;;4991679;28;20112;-71
2021/08/08 04:34:36;;;;;;;20.30;3.13;;;;;;;;;;4991293;28;20102;-69
2021/08/08 04:37:04;;;;;;;20.52;4.65;;;;;;;;;;5005936;28;20376;-70
2021/08/08 04:39:31;;;;;;;12.05;2.13;;;;;;;;;;4990747;28;20026;-70
2021/08/08 04:41:58;;;;;;;18.00;2.05;;;;;;;;;;4989162;28;20023;-71
2021/08/08 04:44:26;;;;;;;20.70;3.75;;;;;;;;;;4990558;28;20065;-70
2021/08/08 04:46:53;;;;;;;15.68;2.15;;;;;;;;;;4990252;28;20109;-70
2021/08/08 04:49:20;;;;;;;19.75;3.22;;;;;;;;;;4991673;28;20018;-70
2021/08/08 04:51:47;;;;;;;15.48;2.00;;;;;;;;;;4989307;28;20034;-71
2021/08/08 04:54:14;;;;;;;17.45;2.17;;;;;;;;;;4989764;28;20372;-71
2021/08/08 04:56:43;;;;;;;23.23;3.55;;;;;;;;;;4993183;28;20026;-70
2021/08/08 04:59:10;;;;;;;18.80;2.88;;;;;;;;;;4986643;28;20025;-70
2021/08/08 05:01:39;;;;;;;15.68;2.58;;;;;;;;;;4983595;28;20101;-71
2021/08/08 05:04:07;;;;;;;19.42;3.40;;;;;;;;;;4990219;28;20089;-71
2021/08/08 05:06:35;;;;;;;23.33;2.05;;;;;;;;;;4990090;28;20104;-71
2021/08/08 05:09:02;;;;;;;21.05;2.13;;;;;;;;;;4989059;28;20057;-71
2021/08/08 05:11:29;;;;;;;14.43;2.33;;;;;;;;;;4985443;28;20034;-70
2021/08/08 05:13:57;;;;;;;15.73;2.40;;;;;;;;;;4988577;28;20023;-69
2021/08/08 05:16:24;;;;;;;14.43;2.70;;;;;;;;;;4986058;28;20062;-70
2021/08/08 05:18:51;;;;;;;20.02;3.55;;;;;;;;;;4989683;28;20121;-69
2021/08/08 05:21:18;;;;;;;14.52;2.58;;;;;;;;;;4988713;28;20037;-70
2021/08/08 05:23:45;;;;;;;12.00;1.88;;;;;;;;;;4990093;28;20114;-71
2021/08/08 05:26:12;;;;;;;14.13;2.05;;;;;;;;;;4988644;28;20039;-70
2021/08/08 05:28:42;;;;;;;16.88;2.25;;;;;;;;;;4998677;28;20507;-69
2021/08/08 05:31:09;;;;;;;20.58;2.60;;;;;;;;;;4988316;28;20546;-69
2021/08/08 05:33:36;;;;;;;18.05;3.70;;;;;;;;;;4990847;28;20066;-69
2021/08/08 05:36:03;;;;;;;15.77;2.78;;;;;;;;;;4989025;28;20499;-69
2021/08/08 05:38:30;;;;;;;22.75;3.20;;;;;;;;;;5003450;28;20412;-69
2021/08/08 05:40:58;;;;;;;21.77;4.38;;;;;;;;;;4990056;28;20034;-70
2021/08/08 05:43:25;;;;;;;16.27;4.20;;;;;;;;;;4990124;28;20953;-70
2021/08/08 05:45:52;;;;;;;16.13;3.38;;;;;;;;;;4990041;28;20022;-70
2021/08/08 05:48:19;;;;;;;14.20;2.85;;;;;;;;;;4988167;28;20026;-70
2021/08/08 05:50:46;;;;;;;22.33;2.60;;;;;;;;;;4987371;28;20096;-70
2021/08/08 05:53:14;;;;;;;17.70;3.55;;;;;;;;;;4985978;28;20070;-68
2021/08/08 05:55:46;;;;;;;17.10;3.28;;;;;;;;;;4985641;28;20057;-68
2021/08/08 05:58:13;;;;;;;12.50;2.30;;;;;;;;;;4983961;28;20035;-69
2021/08/08 06:00:42;;;;;;;19.40;2.65;;;;;;;;;;5000799;28;20153;-69
2021/08/08 06:03:10;;;;;;;16.35;1.80;;;;;;;;;;4985509;28;20022;-68
2021/08/08 06:05:38;;;;;;;15.20;2.65;;;;;;;;;;4983807;28;20031;-68
2021/08/08 06:08:06;;;;;;;15.57;2.30;;;;;;;;;;4983866;28;20038;-69
2021/08/08 06:10:33;;;;;;;22.25;2.92;;;;;;;;;;4986396;28;20015;-69
2021/08/08 06:13:01;;;;;;;16.77;2.10;;;;;;;;;;4989454;28;20113;-69
2021/08/08 06:15:28;;;;;;;11.82;1.73;;;;;;;;;;4987852;28;20038;-69
2021/08/08 06:17:55;;;;;;;18.00;3.10;;;;;;;;;;4990095;28;20026;-69
2021/08/08 06:20:23;;;;;;;14.13;2.08;;;;;;;;;;4989567;28;20395;-68
2021/08/08 06:22:50;;;;;;;18.58;2.83;;;;;;;;;;4990925;28;20042;-68
2021/08/08 06:25:17;;;;;;;20.33;2.83;;;;;;;;;;4991409;28;20643;-68
2021/08/08 06:27:45;;;;;;;15.15;2.22;;;;;;;;;;4989945;28;20046;-69
2021/08/08 06:30:12;;;;;;;17.38;2.05;;;;;;;;;;4988715;28;20056;-68
2021/08/08 06:32:40;;;;;;;20.70;2.28;;;;;;;;;;4986058;28;20078;-67
2021/08/08 06:35:07;;;;;;;14.25;2.42;;;;;;;;;;4985396;28;20034;-68
2021/08/08 06:37:34;;;;;;;14.88;1.65;;;;;;;;;;4982837;28;20157;-68
2021/08/08 06:40:01;;;;;;;9.63;1.83;;;;;;;;;;4989506;28;20429;-69
2021/08/08 06:42:29;;;;;;;16.13;1.98;;;;;;;;;;4992587;28;20019;-69
2021/08/08 06:44:56;;;;;;;20.63;2.40;;;;;;;;;;4994538;28;20077;-69
2021/08/08 06:47:23;;;;;;;16.92;2.75;;;;;;;;;;4992003;28;20034;-68
2021/08/08 06:49:50;;;;;;;18.40;2.55;;;;;;;;;;4993310;28;20113;-68
2021/08/08 06:52:17;;;;;;;17.80;3.78;;;;;;;;;;4992217;28;20744;-68
2021/08/08 06:54:44;;;;;;;24.70;3.53;;;;;;;;;;4989749;28;20042;-69
2021/08/08 06:57:11;;;;;;;28.52;9.48;;;;;;;;;;4989836;28;20085;-69
2021/08/08 06:59:39;;;;;;;18.20;5.55;;;;;;;;;;4989686;28;20027;-68
2021/08/08 07:02:07;;;;;;;20.13;3.90;;;;;;;;;;4990732;28;20639;-68
2021/08/08 07:04:34;;;;;;;20.23;4.40;;;;;;;;;;4989112;28;20030;-69
2021/08/08 07:07:01;;;;;;;20.80;2.88;;;;;;;;;;4991040;28;20034;-68
2021/08/08 07:09:28;;;;;;;17.70;3.60;;;;;;;;;;5004977;28;20022;-67
2021/08/08 07:11:55;;;;;;;19.55;3.10;;;;;;;;;;4991560;28;20026;-68
2021/08/08 07:14:22;;;;;;;14.82;3.60;;;;;;;;;;4989617;28;20053;-68
2021/08/08 07:16:49;;;;;;;16.63;2.85;;;;;;;;;;4988547;28;20042;-67
2021/08/08 07:19:16;;;;;;;10.98;2.58;;;;;;;;;;4988550;28;20414;-67
2021/08/08 07:21:43;;;;;;;16.13;2.33;;;;;;;;;;4988641;28;20786;-69
2021/08/08 07:24:11;;;;;;;19.92;4.28;;;;;;;;;;4989179;28;20030;-67
2021/08/08 07:26:38;;;;;;;16.88;3.47;;;;;;;;;;4988885;28;20030;-68
2021/08/08 07:29:05;;;;;;;21.90;5.13;;;;;;;;;;4989253;28;20030;-68
2021/08/08 07:31:32;;;;;;;17.48;4.15;;;;;;;;;;4987476;28;20025;-68
2021/08/08 07:33:59;;;;;;;14.20;3.15;;;;;;;;;;4989589;28;20031;-69
2021/08/08 07:36:26;;;;;;;13.85;2.50;;;;;;;;;;4989642;28;20037;-69
2021/08/08 07:38:53;;;;;;;16.85;4.38;;;;;;;;;;4988163;28;20466;-69
2021/08/08 07:41:20;;;;;;;14.80;4.07;;;;;;;;;;4988282;28;20023;-68
2021/08/08 07:43:47;;;;;;;17.67;5.53;;;;;;;;;;4990836;28;20023;-68
2021/08/08 07:46:15;;;;;;;19.98;5.72;;;;;;;;;;4989378;28;20034;-68
2021/08/08 07:48:44;;;;;;;13.70;4.05;;;;;;;;;;4993888;28;20031;-69
2021/08/08 07:51:11;;;;;;;13.23;3.20;;;;;;;;;;5002013;28;20037;-68
2021/08/08 07:53:40;;;;;;;22.45;4.63;;;;;;;;;;4990493;28;20050;-68
2021/08/08 07:56:07;;;;;;;20.13;3.38;;;;;;;;;;4992913;28;20026;-69
2021/08/08 07:58:35;;;;;;;19.42;2.95;;;;;;;;;;4993332;28;20066;-69
2021/08/08 08:01:02;;;;;;;19.00;3.17;;;;;;;;;;4993471;28;20026;-67
2021/08/08 08:03:30;;;;;;;10.05;2.28;;;;;;;;;;5007745;28;20038;-67
2021/08/08 08:05:57;;;;;;;16.77;2.85;;;;;;;;;;4992625;28;20026;-69
2021/08/08 08:08:24;;;;;;;16.98;2.88;;;;;;;;;;5005537;28;20030;-70
2021/08/08 08:10:51;;;;;;;20.67;2.83;;;;;;;;;;4991250;28;20114;-68
2021/08/08 08:13:18;;;;;;;13.85;2.10;;;;;;;;;;4991317;28;20478;-68
2021/08/08 08:15:45;;;;;;;16.25;3.75;;;;;;;;;;4991383;28;20065;-69
2021/08/08 08:18:13;;;;;;;20.40;4.22;;;;;;;;;;4987360;28;20023;-68
2021/08/08 08:20:41;;;;;;;18.50;4.32;;;;;;;;;;5005469;28;20526;-69
2021/08/08 08:23:08;;;;;;;20.70;4.28;;;;;;;;;;4983464;28;20109;-68
2021/08/08 08:25:35;;;;;;;17.92;3.33;;;;;;;;;;4989723;28;20034;-69
2021/08/08 08:28:02;;;;;;;19.02;3.92;;;;;;;;;;4992739;28;20093;-70
2021/08/08 08:30:30;;;;;;;11.65;3.50;;;;;;;;;;4994063;28;20510;-69
2021/08/08 08:32:57;;;;;;;15.80;3.80;;;;;;;;;;4991601;28;20468;-67
2021/08/08 08:35:24;;;;;;;21.20;2.78;;;;;;;;;;4993536;28;20034;-69
2021/08/08 08:37:51;;;;;;;14.15;3.13;;;;;;;;;;4990786;28;20406;-69
2021/08/08 08:40:18;;;;;;;18.27;3.17;;;;;;;;;;4993307;28;20035;-67
2021/08/08 08:42:57;;;;;;;17.85;3.10;;;;;;;;;;4991714;28;20022;-68
2021/08/08 08:45:24;;;;;;;16.38;2.75;;;;;;;;;;4982882;28;20030;-69
2021/08/08 08:47:52;;;;;;;18.52;4.00;;;;;;;;;;4983884;28;20114;-69
2021/08/08 08:50:22;;;;;;;17.85;3.50;;;;;;;;;;4982815;28;20022;-71
2021/08/08 08:52:51;;;;;;;17.33;3.47;;;;;;;;;;4988937;28;20022;-70
2021/08/08 08:55:18;;;;;;;15.32;3.08;;;;;;;;;;4993009;28;20510;-69
2021/08/08 08:57:46;;;;;;;15.00;3.40;;;;;;;;;;4990735;28;20030;-69
2021/08/08 09:00:14;;;;;;;20.27;4.15;;;;;;;;;;4992687;28;20041;-69
2021/08/08 09:02:41;;;;;;;17.67;3.80;;;;;;;;;;4990866;28;20076;-69
2021/08/08 09:05:08;;;;;;;17.77;3.67;;;;;;;;;;4992707;28;20033;-69
2021/08/08 09:07:37;;;;;;;17.55;4.15;;;;;;;;;;4991137;28;20033;-70
2021/08/08 09:10:10;;;;;;;17.10;3.25;;;;;;;;;;4993325;28;20073;-69
2021/08/08 09:12:37;;;;;;;15.80;3.60;;;;;;;;;;4989625;28;20038;-69
2021/08/08 09:15:05;;;;;;;15.88;3.50;;;;;;;;;;4993384;28;20502;-70
2021/08/08 09:17:36;;;;;;;19.00;4.63;;;;;;;;;;4982683;28;20523;-69
2021/08/08 09:20:09;;;;;;;12.48;3.00;;;;;;;;;;5005227;28;20119;-70
2021/08/08 09:22:37;;;;;;;12.73;3.63;;;;;;;;;;4991801;28;20026;-70
2021/08/08 09:25:04;;;;;;;18.33;4.95;;;;;;;;;;4992608;28;20105;-68
2021/08/08 09:27:36;;;;;;;13.77;4.00;;;;;;;;;;4990718;28;20066;-71
2021/08/08 09:30:05;;;;;;;16.83;4.75;;;;;;;;;;4992895;28;20077;-70
2021/08/08 09:32:36;;;;;;;21.70;4.53;;;;;;;;;;4990361;28;20105;-70
2021/08/08 09:35:07;;;;;;;18.02;3.78;;;;;;;;;;4990142;28;20022;-70
2021/08/08 09:37:35;;;;;;;14.15;5.43;;;;;;;;;;4987588;28;20026;-70
2021/08/08 09:40:03;;;;;;;16.83;5.00;;;;;;;;;;5007744;28;20091;-70
2021/08/08 09:42:32;;;;;;;17.27;4.93;;;;;;;;;;4988307;28;20061;-70
2021/08/08 09:44:59;;;;;;;19.40;7.50;;;;;;;;;;5003059;28;20034;-70
2021/08/08 09:47:43;;;;;;;20.73;7.95;;;;;;;;;;5005781;28;20027;-70
2021/08/08 09:50:14;;;;;;;20.33;6.88;;;;;;;;;;4992089;28;20031;-70
2021/08/08 09:52:42;;;;;;;22.60;6.68;;;;;;;;;;4989762;28;20026;-70
2021/08/08 09:55:19;;;;;;;21.48;6.18;;;;;;;;;;4992101;28;20061;-69
2021/08/08 09:57:47;;;;;;;21.55;5.45;;;;;;;;;;4990453;28;20487;-70
2021/08/08 10:00:24;;;;;;;18.40;6.00;;;;;;;;;;4990806;28;20141;-69
2021/08/08 10:02:51;;;;;;;21.60;7.15;;;;;;;;;;4989991;28;20033;-69
2021/08/08 10:05:18;;;;;;;21.95;6.25;;;;;;;;;;4991611;28;20058;-69
2021/08/08 10:07:47;;;;;;;14.45;4.50;;;;;;;;;;4991715;28;20024;-70
2021/08/08 10:10:14;;;;;;;22.02;5.45;;;;;;;;;;4991692;28;20025;-69
2021/08/08 10:12:44;;;;;;;30.48;5.68;;;;;;;;;;4990086;28;20117;-69
2021/08/08 10:15:12;;;;;;;16.58;4.75;;;;;;;;;;4991237;28;20023;-70
2021/08/08 10:17:40;;;;;;;17.13;3.85;;;;;;;;;;4989348;28;20026;-70
2021/08/08 10:20:08;;;;;;;14.38;4.45;;;;;;;;;;4991908;28;20526;-69
2021/08/08 10:22:36;;;;;;;15.15;4.30;;;;;;;;;;4990713;28;20025;-69
2021/08/08 10:25:03;;;;;;;21.75;5.22;;;;;;;;;;4992308;28;20046;-69
2021/08/08 10:27:31;;;;;;;22.25;4.80;;;;;;;;;;4991216;28;20034;-70
2021/08/08 10:29:59;;;;;;;17.92;4.50;;;;;;;;;;5000650;28;20395;-70
2021/08/08 10:32:29;;;;;;;14.40;3.75;;;;;;;;;;4995100;28;20034;-69
2021/08/08 10:34:56;;;;;;;21.88;3.90;;;;;;;;;;5003601;28;20456;-69
2021/08/08 10:37:25;;;;;;;11.98;4.47;;;;;;;;;;4991620;28;20026;-68
2021/08/08 10:39:53;;;;;;;16.13;3.92;;;;;;;;;;4986524;28;20377;-69
2021/08/08 10:42:21;;;;;;;20.55;4.15;;;;;;;;;;5003514;28;20057;-69
2021/08/08 10:44:59;;;;;;;16.13;4.68;;;;;;;;;;4991771;28;20027;-69
2021/08/08 10:47:34;;;;;;;16.83;5.28;;;;;;;;;;4990498;28;20037;-69
2021/08/08 10:50:17;;;;;;;27.13;4.97;;;;;;;;;;4992054;28;20026;-68
2021/08/08 10:52:45;;;;;;;14.95;3.90;;;;;;;;;;5000906;28;20031;-69
2021/08/08 10:55:31;;;;;;;16.30;4.15;;;;;;;;;;4991517;28;20042;-69
2021/08/08 10:58:01;;;;;;;22.55;4.40;;;;;;;;;;4993265;28;20042;-69
2021/08/08 11:00:32;;;;;;;20.83;4.85;;;;;;;;;;4999326;28;20042;-70
2021/08/08 11:03:19;;;;;;;19.60;3.78;;;;;;;;;;4994590;28;20018;-69
2021/08/08 11:05:47;;;;;;;19.25;5.00;;;;;;;;;;4977847;28;20034;-69
2021/08/08 11:08:14;;;;;;;18.77;3.90;;;;;;;;;;5009184;28;20034;-69
2021/08/08 11:10:42;;;;;;;19.85;5.93;;;;;;;;;;5011381;28;20037;-69
2021/08/08 11:13:19;;;;;;;25.50;6.18;;;;;;;;;;5007813;28;20024;-71
2021/08/08 11:15:46;;;;;;;19.23;4.95;;;;;;;;;;4991824;28;20030;-69
2021/08/08 11:18:14;;;;;;;25.08;5.25;;;;;;;;;;4989744;28;20078;-70
2021/08/08 11:20:42;;;;;;;20.23;5.55;;;;;;;;;;4992119;28;20526;-69
2021/08/08 11:23:10;;;;;;;20.17;5.47;;;;;;;;;;4999188;28;20522;-70
2021/08/08 11:25:37;;;;;;;17.30;4.85;;;;;;;;;;4994015;28;20035;-69
2021/08/08 11:28:04;;;;;;;23.05;5.05;;;;;;;;;;4995641;28;20041;-71
2021/08/08 11:30:39;;;;;;;19.10;5.97;;;;;;;;;;4980512;28;20113;-70
2021/08/08 11:33:06;;;;;;;21.77;7.60;;;;;;;;;;5019255;28;20034;-69
2021/08/08 11:35:33;;;;;;;16.00;5.47;;;;;;;;;;5000940;28;20037;-70
2021/08/08 11:38:00;;;;;;;23.52;5.45;;;;;;;;;;5003923;28;20042;-70
2021/08/08 11:40:31;;;;;;;18.35;6.88;;;;;;;;;;4997194;28;20034;-69
2021/08/08 11:43:00;;;;;;;18.33;5.88;;;;;;;;;;4995246;28;20383;-70
2021/08/08 11:45:38;;;;;;;20.95;6.13;;;;;;;;;;4995093;28;20061;-70
2021/08/08 11:48:06;;;;;;;17.08;6.70;;;;;;;;;;4994975;28;20117;-70
2021/08/08 11:50:34;;;;;;;23.02;6.32;;;;;;;;;;4995119;28;20344;-70
2021/08/08 11:53:02;;;;;;;21.25;6.05;;;;;;;;;;4994365;28;20058;-70
2021/08/08 11:55:33;;;;;;;20.60;5.20;;;;;;;;;;4993243;28;20466;-69
2021/08/08 11:58:18;;;;;;;22.85;6.63;;;;;;;;;;4994556;28;20060;-71
2021/08/08 12:00:45;;;;;;;18.02;5.18;;;;;;;;;;4993443;28;20038;-70
2021/08/08 12:03:13;;;;;;;21.73;5.20;;;;;;;;;;4996039;28;20371;-70
2021/08/08 12:05:43;;;;;;;18.45;5.50;;;;;;;;;;4997050;28;20034;-72
2021/08/08 12:08:11;;;;;;;23.45;6.05;;;;;;;;;;5009369;28;20109;-70
2021/08/08 12:10:38;;;;;;;19.88;5.50;;;;;;;;;;5008438;28;20106;-70
2021/08/08 12:13:16;;;;;;;20.58;6.03;;;;;;;;;;5013964;28;20030;-70
2021/08/08 12:15:43;;;;;;;24.73;5.35;;;;;;;;;;5013376;28;20026;-68
2021/08/08 12:18:10;;;;;;;22.90;6.63;;;;;;;;;;4992809;28;20125;-69
2021/08/08 12:20:38;;;;;;;18.85;6.13;;;;;;;;;;5013207;28;20034;-68
2021/08/08 12:23:14;;;;;;;18.08;5.80;;;;;;;;;;4999235;28;20025;-69
2021/08/08 12:25:44;;;;;;;20.55;5.20;;;;;;;;;;4993817;28;20023;-69
2021/08/08 12:28:11;;;;;;;17.90;5.28;;;;;;;;;;5017706;28;20041;-72
2021/08/08 12:30:38;;;;;;;20.67;5.78;;;;;;;;;;4994217;28;20026;-69
2021/08/08 12:33:07;;;;;;;17.67;5.10;;;;;;;;;;4992606;28;20058;-70
2021/08/08 12:35:44;;;;;;;18.75;5.05;;;;;;;;;;5008222;28;20037;-70
2021/08/08 12:38:16;;;;;;;25.25;5.90;;;;;;;;;;5002038;28;20097;-70
2021/08/08 12:40:54;;;;;;;22.33;7.93;;;;;;;;;;4998721;28;20027;-69
2021/08/08 12:43:26;;;;;;;22.67;8.18;;;;;;;;;;4995950;28;20025;-69
2021/08/08 12:45:54;;;;;;;19.15;5.88;;;;;;;;;;5004312;28;20057;-70
2021/08/08 12:48:34;;;;;;;21.75;5.18;;;;;;;;;;4997743;28;20044;-69
2021/08/08 12:51:01;;;;;;;17.38;5.43;;;;;;;;;;5012833;28;20038;-68
2021/08/08 12:53:28;;;;;;;18.83;4.95;;;;;;;;;;5007541;28;20125;-68
2021/08/08 12:55:55;;;;;;;23.42;5.07;;;;;;;;;;5003107;28;20438;-68
2021/08/08 12:58:23;;;;;;;18.90;5.60;;;;;;;;;;5012267;28;20125;-69
2021/08/08 13:00:50;;;;;;;23.08;6.68;;;;;;;;;;4998513;28;20133;-69
2021/08/08 13:03:17;;;;;;;20.38;4.60;;;;;;;;;;4995379;28;20034;-69
2021/08/08 13:05:44;;;;;;;21.27;6.18;;;;;;;;;;5003669;28;20078;-69
2021/08/08 13:08:11;;;;;;;21.60;5.82;;;;;;;;;;4974120;28;20546;-68
2021/08/08 13:10:39;;;;;;;16.25;4.63;;;;;;;;;;4999284;28;20038;-69
2021/08/08 13:13:06;;;;;;;18.92;6.43;;;;;;;;;;4997586;28;20426;-70
2021/08/08 13:15:33;;;;;;;21.25;4.85;;;;;;;;;;5007605;28;20022;-70
2021/08/08 13:18:00;;;;;;;15.80;4.75;;;;;;;;;;4991069;28;20065;-69
2021/08/08 13:20:27;;;;;;;20.25;5.07;;;;;;;;;;4996803;28;20057;-70
2021/08/08 13:22:54;;;;;;;17.55;4.90;;;;;;;;;;5006218;28;20106;-69
2021/08/08 13:25:21;;;;;;;21.48;4.97;;;;;;;;;;4992720;28;20027;-70
2021/08/08 13:27:48;;;;;;;14.40;4.70;;;;;;;;;;4998686;28;20079;-69
2021/08/08 13:30:15;;;;;;;18.23;4.82;;;;;;;;;;5003798;28;20019;-70
2021/08/08 13:32:42;;;;;;;19.60;5.25;;;;;;;;;;5009601;28;20026;-69
2021/08/08 13:35:10;;;;;;;20.35;6.78;;;;;;;;;;5001471;28;20383;-69
2021/08/08 13:37:37;;;;;;;20.58;4.65;;;;;;;;;;5007883;28;20041;-69
2021/08/08 13:40:08;;;;;;;20.75;5.55;;;;;;;;;;4993035;28;20033;-69
2021/08/08 13:42:35;;;;;;;15.68;4.00;;;;;;;;;;5002151;28;20023;-70
2021/08/08 13:45:02;;;;;;;15.73;4.50;;;;;;;;;;5004761;28;20018;-69
2021/08/08 13:47:33;;;;;;;18.17;4.60;;;;;;;;;;5004785;28;20108;-69
2021/08/08 13:50:01;;;;;;;15.35;4.47;;;;;;;;;;5000728;28;20101;-69
2021/08/08 13:52:28;;;;;;;20.05;4.93;;;;;;;;;;4992681;28;20499;-69
2021/08/08 13:54:55;;;;;;;19.35;4.78;;;;;;;;;;4997252;28;20213;-69
2021/08/08 13:57:22;;;;;;;17.27;4.75;;;;;;;;;;4999828;28;20108;-68
2021/08/08 13:59:49;;;;;;;19.88;5.68;;;;;;;;;;5010832;28;20506;-69
2021/08/08 14:02:16;;;;;;;18.65;5.43;;;;;;;;;;5010029;28;20034;-69
2021/08/08 14:04:43;;;;;;;20.25;5.30;;;;;;;;;;5011599;28;20049;-70
2021/08/08 14:07:11;;;;;;;17.48;6.45;;;;;;;;;;5003087;28;20044;-70
2021/08/08 14:09:38;;;;;;;26.05;6.10;;;;;;;;;;5006557;28;20032;-69
2021/08/08 14:12:05;;;;;;;24.65;6.00;;;;;;;;;;4984222;28;20026;-70
2021/08/08 14:14:32;;;;;;;23.23;6.85;;;;;;;;;;5011606;28;20026;-70
2021/08/08 14:16:59;;;;;;;17.85;6.32;;;;;;;;;;4998516;28;20022;-69
2021/08/08 14:19:27;;;;;;;22.88;6.93;;;;;;;;;;5004093;28;20088;-69
2021/08/08 14:21:54;;;;;;;29.38;7.03;;;;;;;;;;5006941;28;20482;-69
2021/08/08 14:24:22;;;;;;;21.08;7.22;;;;;;;;;;5004655;28;20053;-69
2021/08/08 14:26:49;;;;;;;22.17;6.53;;;;;;;;;;4992869;28;20491;-68
2021/08/08 14:29:16;;;;;;;22.05;8.27;;;;;;;;;;5003784;28;20034;-69
2021/08/08 14:31:43;;;;;;;33.83;7.80;;;;;;;;;;4991776;28;20372;-69
2021/08/08 14:34:10;;;;;;;33.70;13.07;;;;;;;;;;5004380;28;20030;-69
2021/08/08 14:36:37;;;;;;;22.60;8.18;;;;;;;;;;4993988;28;20505;-68